createdAt,value
2019-05-01T00:01:15.849Z,58.54
2019-05-01T00:04:04.171Z,58.18
2019-05-01T00:06:40.025Z,58.99
2019-05-01T00:09:11.147Z,58.97
2019-05-01T00:11:40.502Z,59.43
2019-05-01T00:14:10.361Z,59.51
2019-05-01T00:16:41.085Z,59.49
2019-05-01T00:19:10.576Z,59.39
2019-05-01T00:21:40.515Z,59.43
2019-05-01T00:24:09.973Z,59.64
2019-05-01T00:26:39.347Z,59.14
2019-05-01T00:29:08.815Z,60.15
2019-05-01T00:31:38.488Z,59.68
2019-05-01T00:34:07.844Z,60.66
2019-05-01T00:36:37.205Z,60.36
2019-05-01T00:39:09.338Z,60.49
2019-05-01T00:41:38.694Z,60.66
2019-05-01T00:44:08.061Z,60.06
2019-05-01T00:46:37.572Z,60.64
2019-05-01T00:49:06.961Z,60.96
2019-05-01T00:51:36.320Z,60.62
2019-05-01T00:54:05.955Z,61.05
2019-05-01T00:56:49.747Z,61.31
2019-05-01T00:59:32.117Z,61.12
2019-05-01T01:02:31.662Z,61.34
2019-05-01T01:05:01.156Z,61.66
2019-05-01T01:07:30.520Z,61.62
2019-05-01T01:09:59.911Z,61.73
2019-05-01T01:12:29.312Z,61.69
2019-05-01T01:14:58.973Z,61.86
2019-05-01T01:17:28.569Z,61.89
2019-05-01T01:19:58.669Z,62.05
2019-05-01T01:22:28.079Z,61.95
2019-05-01T01:24:57.668Z,61.78
2019-05-01T01:27:27.404Z,62.06
2019-05-01T01:29:56.999Z,61.96
2019-05-01T01:32:26.415Z,61.99
2019-05-01T01:34:55.891Z,61.88
2019-05-01T01:37:25.835Z,61.73
2019-05-01T01:39:55.323Z,61.89
2019-05-01T01:42:25.095Z,61.79
2019-05-01T01:45:13.706Z,61.95
2019-05-01T01:48:01.347Z,62.24
2019-05-01T01:50:31.213Z,62.32
2019-05-01T01:53:00.923Z,62.26
2019-05-01T01:55:30.706Z,62.52
2019-05-01T01:58:00.323Z,62.58
2019-05-01T02:00:39.035Z,62.75
2019-05-01T02:03:09.767Z,62.13
2019-05-01T02:05:42.583Z,62.52
2019-05-01T02:08:12.124Z,62.44
2019-05-01T02:13:12.600Z,62.98
2019-05-01T02:15:42.065Z,62.99
2019-05-01T02:18:11.920Z,63.24
2019-05-01T02:20:42.049Z,63.10
2019-05-01T02:23:11.499Z,63.06
2019-05-01T02:25:42.724Z,63.36
2019-05-01T02:28:33.856Z,63.07
2019-05-01T02:31:29.271Z,63.18
2019-05-01T02:34:01.233Z,62.91
2019-05-01T02:36:32.066Z,63.58
2019-05-01T02:39:02.434Z,63.58
2019-05-01T02:41:35.769Z,63.55
2019-05-01T02:44:13.377Z,63.69
2019-05-01T02:46:45.644Z,63.79
2019-05-01T02:49:20.099Z,63.66
2019-05-01T02:51:51.354Z,63.51
2019-05-01T02:54:21.726Z,63.88
2019-05-01T02:57:10.677Z,64.19
2019-05-01T02:59:42.211Z,63.82
2019-05-01T03:02:12.185Z,63.96
2019-05-01T03:04:42.444Z,63.80
2019-05-01T03:07:12.314Z,64.07
2019-05-01T03:09:42.455Z,63.99
2019-05-01T03:12:13.752Z,64.16
2019-05-01T03:14:48.783Z,64.17
2019-05-01T03:17:53.861Z,64.35
2019-05-01T03:20:33.667Z,64.24
2019-05-01T03:23:41.105Z,64.33
2019-05-01T03:26:10.476Z,64.64
2019-05-01T03:28:41.761Z,64.00
2019-05-01T03:31:11.170Z,64.06
2019-05-01T03:33:41.902Z,63.77
2019-05-01T03:36:11.574Z,64.10
2019-05-01T03:38:40.988Z,64.19
2019-05-01T03:41:10.644Z,64.87
2019-05-01T03:43:41.360Z,65.17
2019-05-01T03:46:11.751Z,65.07
2019-05-01T03:48:41.322Z,64.79
2019-05-01T03:51:10.687Z,64.85
2019-05-01T03:53:49.853Z,65.28
2019-05-01T03:56:20.250Z,64.94
2019-05-01T03:58:51.059Z,65.57
2019-05-01T04:01:55.049Z,65.88
2019-05-01T04:04:27.422Z,66.80
2019-05-01T04:06:56.873Z,67.31
2019-05-01T04:09:26.298Z,66.94
2019-05-01T04:11:55.962Z,66.86
2019-05-01T04:14:25.341Z,67.07
2019-05-01T04:17:05.265Z,66.38
2019-05-01T04:19:35.070Z,66.97
2019-05-01T04:22:11.179Z,66.73
2019-05-01T04:24:54.749Z,66.77
2019-05-01T04:27:29.320Z,67.14
2019-05-01T04:30:04.676Z,67.25
2019-05-01T04:32:51.205Z,67.05
2019-05-01T04:35:26.415Z,67.36
2019-05-01T04:37:58.202Z,67.65
2019-05-01T04:40:28.297Z,67.37
2019-05-01T04:42:58.164Z,67.60
2019-05-01T04:45:28.882Z,67.58
2019-05-01T04:47:58.392Z,67.80
2019-05-01T04:50:28.301Z,68.26
2019-05-01T04:52:57.814Z,69.08
2019-05-01T04:55:27.499Z,69.77
2019-05-01T04:57:57.080Z,69.74
2019-05-01T05:00:26.834Z,69.74
2019-05-01T05:03:04.894Z,69.96
2019-05-01T05:05:33.846Z,69.90
2019-05-01T05:08:03.953Z,69.89
2019-05-01T05:10:34.082Z,69.96
2019-05-01T05:13:27.041Z,70.11
2019-05-01T05:16:14.111Z,70.03
2019-05-01T05:18:44.099Z,70.24
2019-05-01T05:21:14.069Z,70.44
2019-05-01T05:23:44.311Z,70.55
2019-05-01T05:26:13.815Z,71.06
2019-05-01T05:28:45.456Z,71.54
2019-05-01T05:31:15.645Z,71.15
2019-05-01T05:33:46.838Z,71.93
2019-05-01T05:36:18.107Z,72.05
2019-05-01T05:39:12.987Z,72.20
2019-05-01T05:41:43.767Z,72.49
2019-05-01T05:44:13.363Z,72.88
2019-05-01T05:46:42.991Z,73.05
2019-05-01T05:49:12.695Z,73.56
2019-05-01T05:52:02.097Z,74.18
2019-05-01T05:55:00.105Z,74.40
2019-05-01T05:57:40.671Z,74.74
2019-05-01T06:00:26.298Z,75.36
2019-05-01T06:03:06.140Z,75.86
2019-05-01T06:05:48.700Z,76.37
2019-05-01T06:08:26.427Z,76.22
2019-05-01T06:11:15.099Z,76.56
2019-05-01T06:14:22.122Z,76.67
2019-05-01T06:17:08.072Z,77.04
2019-05-01T06:19:49.683Z,76.92
2019-05-01T06:22:34.690Z,76.87
2019-05-01T06:25:21.619Z,76.87
2019-05-01T06:27:44.801Z,76.51
2019-05-01T06:30:15.669Z,76.04
2019-05-01T06:32:46.085Z,75.64
2019-05-01T06:35:15.579Z,75.20
2019-05-01T06:38:07.549Z,75.05
2019-05-01T06:40:47.564Z,75.24
2019-05-01T06:43:30.088Z,74.92
2019-05-01T06:46:35.555Z,74.90
2019-05-01T06:49:30.963Z,75.01
2019-05-01T06:52:04.266Z,74.57
2019-05-01T06:54:35.574Z,74.64
2019-05-01T06:57:05.772Z,74.79
2019-05-01T06:59:37.685Z,75.31
2019-05-01T07:02:09.231Z,75.54
2019-05-01T07:04:39.679Z,75.46
2019-05-01T07:07:24.022Z,75.39
2019-05-01T07:09:49.378Z,75.78
2019-05-01T07:12:23.999Z,75.76
2019-05-01T07:14:52.380Z,75.82
2019-05-01T07:17:22.227Z,76.17
2019-05-01T07:20:12.055Z,76.32
2019-05-01T07:22:42.346Z,77.04
2019-05-01T07:25:12.173Z,77.24
2019-05-01T07:27:41.688Z,77.45
2019-05-01T07:30:30.508Z,77.51
2019-05-01T07:33:00.535Z,77.53
2019-05-01T07:35:33.071Z,77.81
2019-05-01T07:38:02.426Z,77.75
2019-05-01T07:40:32.828Z,77.53
2019-05-01T07:43:12.533Z,77.26
2019-05-01T07:45:50.282Z,77.01
2019-05-01T07:48:26.600Z,76.82
2019-05-01T07:50:56.336Z,76.48
2019-05-01T07:53:28.338Z,76.27
2019-05-01T07:55:57.364Z,76.09
2019-05-01T07:58:27.007Z,75.45
2019-05-01T08:01:06.107Z,74.90
2019-05-01T08:03:40.908Z,74.21
2019-05-01T08:06:07.278Z,74.06
2019-05-01T08:08:39.707Z,73.54
2019-05-01T08:11:10.136Z,73.49
2019-05-01T08:13:38.982Z,74.20
2019-05-01T08:16:08.820Z,74.31
2019-05-01T08:18:47.622Z,74.50
2019-05-01T08:21:45.979Z,74.53
2019-05-01T08:24:18.020Z,73.46
2019-05-01T08:26:47.161Z,73.36
2019-05-01T08:29:36.904Z,72.76
2019-05-01T08:32:27.060Z,72.06
2019-05-01T08:35:00.622Z,71.44
2019-05-01T08:37:31.119Z,70.18
2019-05-01T08:40:00.604Z,69.84
2019-05-01T08:42:30.020Z,69.69
2019-05-01T08:45:24.181Z,70.09
2019-05-01T08:48:04.517Z,69.53
2019-05-01T08:50:33.913Z,68.01
2019-05-01T08:53:03.287Z,67.36
2019-05-01T08:55:33.536Z,64.87
2019-05-01T08:58:02.904Z,64.95
2019-05-01T09:00:35.973Z,64.62
2019-05-01T09:03:08.520Z,63.93
2019-05-01T09:05:35.101Z,65.11
2019-05-01T09:08:04.559Z,62.96
2019-05-01T09:10:34.090Z,62.00
2019-05-01T09:13:03.478Z,62.08
2019-05-01T09:15:32.846Z,62.03
2019-05-01T09:18:02.371Z,61.84
2019-05-01T09:20:34.157Z,60.46
2019-05-01T09:23:04.061Z,58.59
2019-05-01T09:25:42.694Z,58.84
2019-05-01T09:28:24.428Z,58.83
2019-05-01T09:31:01.642Z,60.28
2019-05-01T09:33:30.926Z,61.75
2019-05-01T09:35:59.621Z,63.18
2019-05-01T09:38:29.328Z,62.75
2019-05-01T09:40:58.746Z,63.10
2019-05-01T09:43:30.926Z,61.90
2019-05-01T09:45:59.444Z,61.84
2019-05-01T09:48:28.905Z,61.16
2019-05-01T09:51:09.144Z,60.86
2019-05-01T09:53:45.887Z,61.58
2019-05-01T09:56:18.411Z,60.67
2019-05-01T09:58:47.869Z,60.49
2019-05-01T10:01:17.421Z,61.25
2019-05-01T10:03:49.466Z,60.90
2019-05-01T10:06:18.861Z,58.85
2019-05-01T10:08:48.376Z,59.43
2019-05-01T10:11:17.921Z,58.67
2019-05-01T10:13:47.304Z,57.81
2019-05-01T10:16:16.756Z,57.70
2019-05-01T10:18:47.267Z,56.47
2019-05-01T10:21:16.787Z,56.20
2019-05-01T10:23:47.092Z,56.47
2019-05-01T10:26:25.397Z,56.49
2019-05-01T10:29:27.503Z,57.47
2019-05-01T10:32:21.667Z,58.08
2019-05-01T10:34:57.062Z,59.45
2019-05-01T10:37:31.775Z,60.49
2019-05-01T10:39:58.211Z,61.13
2019-05-01T10:42:27.725Z,61.50
2019-05-01T10:45:01.037Z,62.09
2019-05-01T10:47:30.505Z,62.68
2019-05-01T10:49:59.886Z,63.14
2019-05-01T10:52:29.413Z,63.59
2019-05-01T10:54:58.795Z,63.82
2019-05-01T10:57:28.352Z,64.16
2019-05-01T10:59:59.798Z,63.25
2019-05-01T11:02:29.182Z,62.68
2019-05-01T11:04:58.567Z,61.89
2019-05-01T11:07:28.143Z,60.46
2019-05-01T11:09:58.816Z,60.07
2019-05-01T11:12:28.298Z,60.35
2019-05-01T11:14:57.955Z,60.79
2019-05-01T11:17:29.509Z,60.72
2019-05-01T11:19:58.905Z,60.19
2019-05-01T11:22:28.390Z,60.07
2019-05-01T11:25:00.510Z,59.68
2019-05-01T11:27:32.478Z,59.18
2019-05-01T11:30:02.019Z,58.63
2019-05-01T11:32:42.924Z,58.92
2019-05-01T11:35:49.739Z,58.68
2019-05-01T11:38:38.258Z,58.15
2019-05-01T11:41:18.105Z,57.63
2019-05-01T11:43:48.387Z,57.54
2019-05-01T11:46:17.808Z,57.00
2019-05-01T11:48:47.307Z,55.81
2019-05-01T11:51:16.871Z,56.01
2019-05-01T11:53:46.287Z,56.34
2019-05-01T11:56:15.711Z,56.68
2019-05-01T11:58:45.077Z,55.84
2019-05-01T12:01:16.205Z,56.15
2019-05-01T12:03:45.650Z,56.06
2019-05-01T12:06:22.766Z,56.98
2019-05-01T12:08:46.245Z,57.93
2019-05-01T12:11:17.401Z,58.08
2019-05-01T12:13:46.788Z,58.01
2019-05-01T12:16:37.749Z,58.02
2019-05-01T12:19:07.161Z,57.93
2019-05-01T12:21:36.553Z,57.41
2019-05-01T12:24:06.068Z,57.36
2019-05-01T12:26:35.514Z,58.04
2019-05-01T12:29:06.726Z,57.69
2019-05-01T12:31:36.335Z,57.12
2019-05-01T12:34:05.809Z,55.69
2019-05-01T12:36:36.711Z,55.97
2019-05-01T12:39:11.886Z,55.82
2019-05-01T12:41:47.386Z,56.21
2019-05-01T12:44:18.974Z,55.85
2019-05-01T12:47:10.184Z,55.73
2019-05-01T12:49:39.784Z,55.70
2019-05-01T12:52:12.826Z,55.34
2019-05-01T12:55:02.905Z,55.23
2019-05-01T12:57:32.328Z,54.86
2019-05-01T13:00:08.393Z,55.24
2019-05-01T13:02:32.900Z,55.27
2019-05-01T13:05:03.925Z,55.22
2019-05-01T13:07:33.318Z,55.24
2019-05-01T13:10:04.050Z,54.59
2019-05-01T13:12:33.419Z,55.37
2019-05-01T13:15:02.825Z,54.66
2019-05-01T13:17:32.327Z,55.04
2019-05-01T13:20:01.702Z,55.36
2019-05-01T13:22:31.193Z,55.59
2019-05-01T13:25:00.608Z,56.08
2019-05-01T13:27:44.842Z,56.08
2019-05-01T13:30:39.089Z,55.82
2019-05-01T13:33:08.538Z,56.42
2019-05-01T13:35:37.954Z,56.59
2019-05-01T13:38:07.626Z,56.58
2019-05-01T13:40:37.002Z,57.00
2019-05-01T13:43:06.604Z,56.92
2019-05-01T13:45:36.384Z,56.99
2019-05-01T13:48:05.838Z,56.93
2019-05-01T13:50:35.292Z,57.03
2019-05-01T13:53:04.854Z,57.10
2019-05-01T13:55:34.252Z,56.68
2019-05-01T13:58:03.781Z,57.21
2019-05-01T14:00:33.237Z,56.99
2019-05-01T14:03:02.636Z,56.80
2019-05-01T14:05:32.019Z,56.04
2019-05-01T14:08:01.455Z,56.65
2019-05-01T14:10:30.937Z,56.44
2019-05-01T14:13:00.326Z,55.79
2019-05-01T14:15:29.811Z,56.06
2019-05-01T14:17:59.179Z,55.24
2019-05-01T14:20:37.251Z,54.93
2019-05-01T14:23:28.713Z,55.19
2019-05-01T14:26:04.908Z,55.20
2019-05-01T14:28:35.896Z,53.66
2019-05-01T14:31:06.204Z,53.83
2019-05-01T14:33:35.675Z,53.66
2019-05-01T14:36:05.928Z,53.39
2019-05-01T14:38:35.293Z,53.56
2019-05-01T14:41:05.728Z,54.05
2019-05-01T14:43:35.090Z,53.91
2019-05-01T14:46:04.495Z,53.52
2019-05-01T14:48:34.233Z,53.87
2019-05-01T14:51:03.688Z,53.20
2019-05-01T14:53:33.135Z,51.53
2019-05-01T14:56:02.654Z,50.39
2019-05-01T14:58:32.055Z,51.21
2019-05-01T15:01:01.448Z,51.22
2019-05-01T15:03:31.069Z,50.25
2019-05-01T15:06:00.429Z,50.02
2019-05-01T15:08:29.936Z,51.09
2019-05-01T15:10:59.338Z,49.85
2019-05-01T15:13:48.329Z,50.38
2019-05-01T15:16:25.764Z,48.58
2019-05-01T15:19:12.713Z,48.61
2019-05-01T15:21:42.134Z,48.12
2019-05-01T15:24:11.623Z,47.97
2019-05-01T15:26:41.252Z,47.70
2019-05-01T15:29:11.273Z,47.52
2019-05-01T15:31:40.698Z,47.61
2019-05-01T15:34:10.090Z,47.59
2019-05-01T15:36:39.644Z,47.12
2019-05-01T15:39:13.866Z,46.87
2019-05-01T15:42:00.759Z,46.51
2019-05-01T15:44:33.254Z,46.30
2019-05-01T15:47:02.694Z,46.31
2019-05-01T15:49:32.413Z,45.91
2019-05-01T15:52:04.209Z,46.02
2019-05-01T15:54:33.580Z,46.17
2019-05-01T15:57:03.144Z,44.83
2019-05-01T15:59:32.519Z,44.34
2019-05-01T16:02:01.921Z,44.49
2019-05-01T16:04:33.307Z,44.57
2019-05-01T16:07:02.640Z,44.57
2019-05-01T16:09:32.019Z,44.93
2019-05-01T16:12:23.619Z,45.04
2019-05-01T16:14:53.083Z,45.51
2019-05-01T16:17:22.499Z,45.98
2019-05-01T16:19:52.037Z,45.94
2019-05-01T16:22:21.413Z,46.26
2019-05-01T16:24:50.992Z,46.07
2019-05-01T16:27:20.674Z,46.13
2019-05-01T16:29:53.176Z,46.07
2019-05-01T16:32:23.063Z,45.93
2019-05-01T16:34:54.879Z,46.09
2019-05-01T16:37:25.306Z,45.89
2019-05-01T16:40:10.101Z,45.92
2019-05-01T16:42:41.526Z,45.59
2019-05-01T16:45:11.803Z,45.83
2019-05-01T16:47:41.211Z,45.87
2019-05-01T16:50:12.697Z,46.08
2019-05-01T16:52:42.439Z,46.35
2019-05-01T16:55:12.078Z,46.45
2019-05-01T16:57:41.544Z,46.67
2019-05-01T17:00:11.904Z,46.84
2019-05-01T17:03:06.489Z,47.18
2019-05-01T17:05:54.956Z,47.30
2019-05-01T17:08:43.294Z,47.57
2019-05-01T17:11:12.888Z,47.93
2019-05-01T17:13:42.303Z,48.21
2019-05-01T17:16:11.878Z,48.26
2019-05-01T17:18:41.254Z,48.48
2019-05-01T17:21:10.718Z,48.80
2019-05-01T17:23:40.088Z,49.13
2019-05-01T17:26:09.670Z,49.17
2019-05-01T17:28:39.022Z,49.26
2019-05-01T17:31:08.607Z,49.42
2019-05-01T17:33:39.649Z,49.66
2019-05-01T17:36:09.017Z,49.92
2019-05-01T17:38:48.924Z,50.01
2019-05-01T17:41:09.833Z,50.33
2019-05-01T17:43:39.221Z,50.39
2019-05-01T17:46:10.676Z,50.69
2019-05-01T17:48:39.988Z,50.71
2019-05-01T17:51:09.397Z,50.87
2019-05-01T17:53:38.873Z,50.93
2019-05-01T17:56:09.969Z,51.17
2019-05-01T17:58:39.482Z,51.45
2019-05-01T18:01:36.900Z,51.85
2019-05-01T18:04:25.146Z,52.07
2019-05-01T18:06:54.531Z,52.44
2019-05-01T18:09:24.043Z,52.62
2019-05-01T18:11:53.724Z,52.88
2019-05-01T18:14:23.209Z,53.17
2019-05-01T18:16:52.665Z,53.32
2019-05-01T18:19:22.082Z,53.50
2019-05-01T18:21:59.363Z,53.87
2019-05-01T18:24:46.367Z,54.03
2019-05-01T18:27:49.916Z,54.24
2019-05-01T18:30:22.269Z,54.60
2019-05-01T18:32:52.547Z,54.95
2019-05-01T18:35:22.060Z,55.21
2019-05-01T18:38:06.435Z,55.47
2019-05-01T18:40:40.307Z,55.70
2019-05-01T18:43:10.023Z,55.84
2019-05-01T18:45:54.320Z,56.10
2019-05-01T18:48:24.712Z,56.26
2019-05-01T18:50:56.397Z,56.37
2019-05-01T18:53:26.144Z,56.35
2019-05-01T18:55:55.876Z,56.49
2019-05-01T18:58:25.477Z,56.50
2019-05-01T19:00:57.097Z,56.64
2019-05-01T19:03:26.502Z,56.60
2019-05-01T19:06:02.830Z,56.47
2019-05-01T19:08:32.512Z,56.55
2019-05-01T19:11:12.209Z,56.42
2019-05-01T19:13:33.506Z,56.41
2019-05-01T19:16:08.204Z,56.08
2019-05-01T19:18:36.608Z,55.89
2019-05-01T19:21:06.345Z,56.07
2019-05-01T19:23:36.343Z,56.12
2019-05-01T19:26:06.866Z,56.22
2019-05-01T19:28:36.420Z,56.25
2019-05-01T19:31:06.094Z,56.43
2019-05-01T19:33:35.637Z,56.70
2019-05-01T19:36:08.056Z,56.36
2019-05-01T19:38:36.976Z,56.44
2019-05-01T19:41:08.398Z,56.45
2019-05-01T19:43:40.576Z,56.65
2019-05-01T19:46:12.351Z,56.81
2019-05-01T19:48:45.408Z,56.50
2019-05-01T19:51:13.200Z,56.87
2019-05-01T19:53:46.435Z,57.00
2019-05-01T19:56:16.639Z,57.43
2019-05-01T19:58:44.957Z,57.48
2019-05-01T20:01:14.352Z,57.69
2019-05-01T20:03:43.860Z,57.63
2019-05-01T20:06:15.377Z,57.62
2019-05-01T20:08:44.736Z,58.51
2019-05-01T20:11:14.138Z,57.92
2019-05-01T20:13:43.523Z,57.99
2019-05-01T20:16:13.286Z,58.50
2019-05-01T20:18:42.645Z,58.45
2019-05-01T20:21:12.472Z,58.97
2019-05-01T20:23:41.843Z,59.05
2019-05-01T20:26:11.251Z,58.83
2019-05-01T20:28:40.601Z,59.51
2019-05-01T20:31:10.287Z,59.90
2019-05-01T20:33:44.197Z,59.66
2019-05-01T20:36:10.887Z,59.49
2019-05-01T20:38:40.236Z,60.05
2019-05-01T20:41:10.304Z,60.36
2019-05-01T20:43:43.513Z,60.08
2019-05-01T20:46:12.312Z,60.35
2019-05-01T20:48:41.697Z,60.43
2019-05-01T20:51:11.133Z,60.73
2019-05-01T20:53:40.539Z,60.77
2019-05-01T20:56:44.173Z,61.13
2019-05-01T20:59:13.554Z,61.83
2019-05-01T21:01:42.928Z,61.82
2019-05-01T21:04:40.695Z,62.46
2019-05-01T21:07:20.104Z,62.72
2019-05-01T21:09:52.657Z,62.95
2019-05-01T21:12:19.256Z,63.21
2019-05-01T21:14:49.546Z,63.12
2019-05-01T21:17:19.339Z,62.79
2019-05-01T21:19:48.851Z,63.19
2019-05-01T21:22:23.435Z,63.59
2019-05-01T21:24:53.353Z,63.51
2019-05-01T21:27:24.897Z,63.60
2019-05-01T21:29:54.749Z,63.53
2019-05-01T21:32:27.723Z,63.71
2019-05-01T21:34:57.200Z,63.69
2019-05-01T21:37:29.681Z,64.14
2019-05-01T21:40:02.730Z,64.12
2019-05-01T21:42:32.667Z,63.99
2019-05-01T21:45:04.257Z,64.33
2019-05-01T21:47:33.690Z,64.43
2019-05-01T21:50:03.278Z,64.72
2019-05-01T21:52:33.252Z,64.62
2019-05-01T21:55:02.727Z,65.25
2019-05-01T21:57:40.995Z,65.26
2019-05-01T22:00:12.064Z,65.78
2019-05-01T22:02:46.272Z,66.56
2019-05-01T22:05:12.668Z,67.35
2019-05-01T22:07:42.254Z,67.76
2019-05-01T22:10:12.238Z,68.35
2019-05-01T22:12:47.336Z,68.07
2019-05-01T22:15:26.728Z,68.40
2019-05-01T22:18:13.957Z,69.06
2019-05-01T22:20:51.319Z,69.12
2019-05-01T22:23:23.302Z,69.22
2019-05-01T22:25:57.322Z,69.78
2019-05-01T22:28:54.788Z,70.09
2019-05-01T22:31:44.193Z,71.12
2019-05-01T22:34:22.805Z,72.09
2019-05-01T22:36:54.847Z,72.68
2019-05-01T22:39:28.778Z,72.92
2019-05-01T22:41:57.638Z,72.26
2019-05-01T22:44:39.893Z,72.37
2019-05-01T22:47:10.212Z,73.84
2019-05-01T22:49:40.389Z,74.81
2019-05-01T22:52:09.846Z,78.79
2019-05-01T22:54:44.988Z,81.05
2019-05-01T22:57:13.617Z,82.15
2019-05-01T23:00:04.942Z,83.58
2019-05-01T23:02:40.211Z,84.07
2019-05-01T23:05:10.522Z,85.46
2019-05-01T23:07:39.894Z,86.15
2019-05-01T23:10:10.549Z,87.43
2019-05-01T23:12:39.979Z,87.62
2019-05-01T23:15:14.886Z,86.91
2019-05-01T23:17:45.926Z,86.44
2019-05-01T23:20:16.003Z,86.81
2019-05-01T23:22:45.503Z,86.49
2019-05-01T23:25:16.202Z,87.36
2019-05-01T23:27:45.576Z,87.66
2019-05-01T23:30:20.958Z,88.41
2019-05-01T23:32:53.575Z,88.20
2019-05-01T23:35:25.851Z,86.68
2019-05-01T23:37:55.341Z,86.80
2019-05-01T23:40:24.916Z,86.92
2019-05-01T23:42:54.437Z,86.35
2019-05-01T23:45:26.456Z,86.90
2019-05-01T23:47:58.156Z,86.66
2019-05-01T23:50:27.513Z,87.27
2019-05-01T23:52:59.071Z,88.13
2019-05-01T23:55:28.518Z,88.29
2019-05-01T23:57:58.010Z,87.77
